createdAt,value
2019-01-17T00:01:45.691Z,99702.39
2019-01-17T00:04:01.011Z,99715.53
2019-01-17T00:06:07.695Z,99723.96
2019-01-17T00:08:27.285Z,99718.56
2019-01-17T00:10:46.932Z,99701.06
2019-01-17T00:12:50.226Z,99702.02
2019-01-17T00:14:53.530Z,99704.16
2019-01-17T00:16:59.535Z,99705.77
2019-01-17T00:19:08.853Z,99705.23
2019-01-17T00:21:29.951Z,99708.20
2019-01-17T00:23:48.246Z,99696.63
2019-01-17T00:26:07.956Z,99683.81
2019-01-17T00:28:11.277Z,99688.13
2019-01-17T00:30:31.382Z,99699.81
2019-01-17T00:32:37.675Z,99696.20
2019-01-17T00:34:40.963Z,99700.42
2019-01-17T00:36:46.942Z,99691.91
2019-01-17T00:39:05.291Z,99680.33
2019-01-17T00:41:24.941Z,99677.38
2019-01-17T00:43:33.994Z,99673.60
2019-01-17T00:45:52.370Z,99672.59
2019-01-17T00:47:55.865Z,99664.59
2019-01-17T00:50:05.151Z,99661.48
2019-01-17T00:52:24.837Z,99661.41
2019-01-17T00:54:28.187Z,99654.94
2019-01-17T00:56:31.503Z,99644.17
2019-01-17T00:58:34.788Z,99635.25
2019-01-17T01:00:38.297Z,99627.14
2019-01-17T01:02:41.606Z,99622.79
2019-01-17T01:05:01.252Z,99631.42
2019-01-17T01:07:07.676Z,99656.31
2019-01-17T01:09:27.289Z,99661.27
2019-01-17T01:11:39.229Z,99662.02
2019-01-17T01:13:48.533Z,99662.84
2019-01-17T01:15:56.084Z,99661.62
2019-01-17T01:18:02.006Z,99665.39
2019-01-17T01:20:15.629Z,99670.41
2019-01-17T01:22:33.932Z,99664.10
2019-01-17T01:24:53.683Z,99661.08
2019-01-17T01:26:56.946Z,99655.89
2019-01-17T01:29:18.069Z,99653.09
2019-01-17T01:31:30.466Z,99643.75
2019-01-17T01:33:36.351Z,99642.73
2019-01-17T01:35:55.970Z,99631.00
2019-01-17T01:38:15.554Z,99632.71
2019-01-17T01:40:35.156Z,99631.18
2019-01-17T01:42:47.487Z,99636.44
2019-01-17T01:44:53.391Z,99634.13
2019-01-17T01:47:13.006Z,99637.81
2019-01-17T01:49:16.343Z,99642.19
2019-01-17T01:51:19.636Z,99650.63
2019-01-17T01:53:21.032Z,99637.22
2019-01-17T01:55:22.449Z,99648.24
2019-01-17T01:57:23.831Z,99644.78
2019-01-17T01:59:25.247Z,99641.35
2019-01-17T02:01:26.662Z,99644.77
2019-01-17T02:03:28.076Z,99633.53
2019-01-17T02:05:29.569Z,99640.43
2019-01-17T02:07:31.040Z,99647.55
2019-01-17T02:09:32.740Z,99622.91
2019-01-17T02:11:34.434Z,99624.29
2019-01-17T02:13:36.018Z,99624.61
2019-01-17T02:15:37.426Z,99621.76
2019-01-17T02:17:38.837Z,99611.08
2019-01-17T02:19:40.315Z,99620.23
2019-01-17T02:21:41.797Z,99623.20
2019-01-17T02:23:43.391Z,99622.55
2019-01-17T02:25:44.764Z,99610.55
2019-01-17T02:27:46.141Z,99623.28
2019-01-17T02:29:47.541Z,99618.03
2019-01-17T02:31:48.945Z,99616.58
2019-01-17T02:33:50.329Z,99620.06
2019-01-17T02:35:51.698Z,99613.40
2019-01-17T02:37:53.132Z,99613.64
2019-01-17T02:39:54.502Z,99603.14
2019-01-17T02:41:55.889Z,99592.73
2019-01-17T02:43:57.577Z,99608.80
2019-01-17T02:45:58.946Z,99603.17
2019-01-17T02:48:00.330Z,99594.39
2019-01-17T02:50:02.073Z,99592.92
2019-01-17T02:52:03.443Z,99590.09
2019-01-17T02:54:04.943Z,99600.25
2019-01-17T02:56:06.539Z,99595.02
2019-01-17T02:58:07.930Z,99592.27
2019-01-17T03:00:15.113Z,99592.27
2019-01-17T03:02:16.544Z,99586.02
2019-01-17T03:04:25.007Z,99590.45
2019-01-17T03:06:26.512Z,99577.47
2019-01-17T03:08:27.990Z,99582.91
2019-01-17T03:10:29.365Z,99584.48
2019-01-17T03:12:30.765Z,99585.73
2019-01-17T03:14:32.137Z,99586.80
2019-01-17T03:16:33.518Z,99580.73
2019-01-17T03:18:35.048Z,99582.41
2019-01-17T03:20:36.426Z,99583.95
2019-01-17T03:22:37.916Z,99576.73
2019-01-17T03:24:43.070Z,99576.31
2019-01-17T03:26:42.616Z,99579.61
2019-01-17T03:28:44.013Z,99581.52
2019-01-17T03:30:45.382Z,99584.98
2019-01-17T03:32:46.791Z,99586.54
2019-01-17T03:34:48.132Z,99585.77
2019-01-17T03:36:49.531Z,99585.50
2019-01-17T03:38:50.920Z,99584.88
2019-01-17T03:40:52.294Z,99578.47
2019-01-17T03:42:53.712Z,99572.55
2019-01-17T03:44:55.071Z,99572.36
2019-01-17T03:46:56.460Z,99576.20
2019-01-17T03:48:57.875Z,99582.06
2019-01-17T03:50:59.263Z,99571.97
2019-01-17T03:53:00.640Z,99578.06
2019-01-17T03:55:02.651Z,99574.72
2019-01-17T03:57:04.067Z,99569.67
2019-01-17T03:59:05.583Z,99566.48
2019-01-17T04:01:06.984Z,99568.37
2019-01-17T04:03:08.463Z,99559.09
2019-01-17T04:05:09.936Z,99555.22
2019-01-17T04:07:11.621Z,99569.20
2019-01-17T04:09:13.011Z,99567.81
2019-01-17T04:11:14.395Z,99571.41
2019-01-17T04:13:16.011Z,99562.89
2019-01-17T04:15:17.399Z,99557.66
2019-01-17T04:17:18.876Z,99570.88
2019-01-17T04:19:20.325Z,99572.05
2019-01-17T04:21:21.717Z,99568.66
2019-01-17T04:23:23.076Z,99557.94
2019-01-17T04:25:24.474Z,99560.64
2019-01-17T04:27:25.874Z,99564.74
2019-01-17T04:29:27.249Z,99575.24
2019-01-17T04:31:28.839Z,99567.29
2019-01-17T04:33:30.231Z,99570.21
2019-01-17T04:35:31.647Z,99572.72
2019-01-17T04:37:33.054Z,99574.48
2019-01-17T04:39:34.428Z,99580.31
2019-01-17T04:41:35.851Z,99578.33
2019-01-17T04:43:37.443Z,99580.50
2019-01-17T04:45:38.815Z,99580.75
2019-01-17T04:47:40.207Z,99584.63
2019-01-17T04:49:41.633Z,99586.52
2019-01-17T04:51:43.013Z,99588.83
2019-01-17T04:53:44.417Z,99588.05
2019-01-17T04:55:45.858Z,99587.36
2019-01-17T04:57:47.246Z,99578.86
2019-01-17T04:59:48.591Z,99581.12
2019-01-17T05:01:50.199Z,99582.55
2019-01-17T05:03:51.574Z,99578.81
2019-01-17T05:05:52.967Z,99585.88
2019-01-17T05:07:54.372Z,99579.07
2019-01-17T05:09:55.765Z,99584.11
2019-01-17T05:11:57.150Z,99575.60
2019-01-17T05:13:58.766Z,99578.94
2019-01-17T05:16:00.130Z,99578.75
2019-01-17T05:18:01.507Z,99575.91
2019-01-17T05:20:08.352Z,99588.53
2019-01-17T05:22:09.830Z,99583.38
2019-01-17T05:24:11.258Z,99583.80
2019-01-17T05:26:13.281Z,99587.16
2019-01-17T05:28:14.702Z,99587.40
2019-01-17T05:30:17.073Z,99591.25
2019-01-17T05:32:18.445Z,99586.12
2019-01-17T05:34:19.870Z,99594.46
2019-01-17T05:36:21.248Z,99586.26
2019-01-17T05:38:22.657Z,99593.48
2019-01-17T05:40:24.051Z,99587.58
2019-01-17T05:42:25.630Z,99592.81
2019-01-17T05:44:27.050Z,99587.62
2019-01-17T05:46:28.423Z,99587.00
2019-01-17T05:48:29.799Z,99585.80
2019-01-17T05:50:31.226Z,99587.91
2019-01-17T05:52:32.581Z,99588.22
2019-01-17T05:54:33.965Z,99584.70
2019-01-17T05:56:35.396Z,99582.86
2019-01-17T05:58:36.792Z,99590.59
2019-01-17T06:00:38.156Z,99595.92
2019-01-17T06:02:39.581Z,99595.98
2019-01-17T06:04:40.970Z,99589.41
2019-01-17T06:06:42.370Z,99593.80
2019-01-17T06:08:43.765Z,99602.08
2019-01-17T06:10:45.144Z,99604.17
2019-01-17T06:12:46.723Z,99601.90
2019-01-17T06:14:48.132Z,99599.59
2019-01-17T06:16:49.505Z,99594.55
2019-01-17T06:18:51.079Z,99600.16
2019-01-17T06:20:52.551Z,99607.70
2019-01-17T06:22:53.947Z,99609.91
2019-01-17T06:24:55.362Z,99615.57
2019-01-17T06:26:56.738Z,99619.80
2019-01-17T06:28:58.111Z,99622.42
2019-01-17T06:30:59.520Z,99621.27
2019-01-17T06:33:01.029Z,99623.56
2019-01-17T06:35:04.808Z,99623.79
2019-01-17T06:37:06.194Z,99623.66
2019-01-17T06:39:07.725Z,99621.78
2019-01-17T06:41:09.133Z,99620.47
2019-01-17T06:43:10.564Z,99622.84
2019-01-17T06:45:12.071Z,99624.62
2019-01-17T06:47:13.549Z,99630.98
2019-01-17T06:49:14.942Z,99624.84
2019-01-17T06:51:16.389Z,99627.37
2019-01-17T06:53:17.772Z,99624.78
2019-01-17T06:55:19.168Z,99626.95
2019-01-17T06:57:20.589Z,99632.73
2019-01-17T06:59:22.004Z,99625.77
2019-01-17T07:01:23.370Z,99622.02
2019-01-17T07:03:24.814Z,99625.67
2019-01-17T07:05:26.158Z,99630.66
2019-01-17T07:07:27.625Z,99637.06
2019-01-17T07:09:29.044Z,99638.28
2019-01-17T07:11:30.437Z,99650.55
2019-01-17T07:13:31.811Z,99649.67
2019-01-17T07:15:33.416Z,99658.25
2019-01-17T07:17:34.780Z,99654.00
2019-01-17T07:19:36.164Z,99646.82
2019-01-17T07:21:37.591Z,99656.45
2019-01-17T07:23:39.005Z,99664.50
2019-01-17T07:25:41.116Z,99672.96
2019-01-17T07:27:42.791Z,99678.44
2019-01-17T07:29:44.159Z,99670.06
2019-01-17T07:31:45.522Z,99673.80
2019-01-17T07:33:46.917Z,99672.94
2019-01-17T07:35:48.645Z,99677.83
2019-01-17T07:37:50.025Z,99673.84
2019-01-17T07:39:51.446Z,99668.23
2019-01-17T07:41:52.853Z,99658.17
2019-01-17T07:43:54.230Z,99659.92
2019-01-17T07:45:55.718Z,99663.34
2019-01-17T07:47:57.643Z,99664.50
2019-01-17T07:49:59.007Z,99677.45
2019-01-17T07:52:00.416Z,99684.59
2019-01-17T07:54:02.037Z,99685.59
2019-01-17T07:56:03.612Z,99685.59
2019-01-17T07:58:05.008Z,99688.91
2019-01-17T08:00:11.606Z,99688.69
2019-01-17T08:02:12.969Z,99693.63
2019-01-17T08:04:14.489Z,99702.56
2019-01-17T08:06:15.962Z,99701.30
2019-01-17T08:08:17.342Z,99702.98
2019-01-17T08:10:19.160Z,99700.88
2019-01-17T08:12:20.537Z,99699.22
2019-01-17T08:14:21.921Z,99696.92
2019-01-17T08:16:23.349Z,99699.54
2019-01-17T08:18:24.730Z,99700.91
2019-01-17T08:20:26.153Z,99699.12
2019-01-17T08:22:27.523Z,99700.92
2019-01-17T08:24:28.932Z,99703.64
2019-01-17T08:26:30.413Z,99701.13
2019-01-17T08:28:31.857Z,99698.48
2019-01-17T08:30:33.260Z,99697.56
2019-01-17T08:32:34.753Z,99701.50
2019-01-17T08:34:36.276Z,99711.95
2019-01-17T08:36:37.663Z,99708.31
2019-01-17T08:38:39.073Z,99709.02
2019-01-17T08:40:40.498Z,99718.95
2019-01-17T08:42:41.876Z,99717.19
2019-01-17T08:44:43.247Z,99721.12
2019-01-17T08:46:44.644Z,99722.33
2019-01-17T08:48:46.028Z,99730.97
2019-01-17T08:50:47.439Z,99727.16
2019-01-17T08:52:49.079Z,99731.08
2019-01-17T08:54:50.498Z,99727.37
2019-01-17T08:56:51.888Z,99732.81
2019-01-17T08:58:53.276Z,99729.75
2019-01-17T09:00:54.694Z,99729.65
2019-01-17T09:02:56.076Z,99736.56
2019-01-17T09:04:57.454Z,99735.29
2019-01-17T09:06:58.880Z,99739.83
2019-01-17T09:09:00.700Z,99740.88
2019-01-17T09:11:02.957Z,99739.80
2019-01-17T09:13:04.374Z,99746.43
2019-01-17T09:15:10.924Z,99741.48
2019-01-17T09:17:12.328Z,99756.84
2019-01-17T09:19:13.766Z,99756.63
2019-01-17T09:21:15.340Z,99768.60
2019-01-17T09:23:16.893Z,99766.19
2019-01-17T09:25:18.311Z,99766.95
2019-01-17T09:27:19.856Z,99770.72
2019-01-17T09:29:21.639Z,99774.78
2019-01-17T09:31:23.244Z,99777.78
2019-01-17T09:33:24.604Z,99779.91
2019-01-17T09:35:26.075Z,99783.36
2019-01-17T09:37:27.711Z,99772.70
2019-01-17T09:39:29.353Z,99767.51
2019-01-17T09:41:30.729Z,99766.33
2019-01-17T09:43:32.285Z,99769.33
2019-01-17T09:45:33.744Z,99771.35
2019-01-17T09:47:35.123Z,99773.80
2019-01-17T09:49:36.530Z,99768.05
2019-01-17T09:51:37.942Z,99772.92
2019-01-17T09:53:39.366Z,99772.20
2019-01-17T09:55:40.792Z,99764.41
2019-01-17T09:57:42.262Z,99765.69
2019-01-17T09:59:43.637Z,99768.12
2019-01-17T10:01:45.048Z,99769.67
2019-01-17T10:03:46.466Z,99774.47
2019-01-17T10:05:47.879Z,99762.91
2019-01-17T10:07:49.606Z,99764.39
2019-01-17T10:09:50.970Z,99760.98
2019-01-17T10:11:52.353Z,99756.14
2019-01-17T10:13:53.778Z,99756.29
2019-01-17T10:16:03.908Z,99747.96
2019-01-17T10:18:30.662Z,99758.83
2019-01-17T10:21:15.604Z,99767.01
2019-01-17T10:23:25.359Z,99751.77
2019-01-17T10:25:49.892Z,99744.20
2019-01-17T10:28:05.844Z,99745.17
2019-01-17T10:30:28.047Z,99738.16
2019-01-17T10:33:16.810Z,99740.61
2019-01-17T10:35:29.752Z,99744.39
2019-01-17T10:37:51.955Z,99736.81
2019-01-17T10:40:19.951Z,99729.02
2019-01-17T10:42:35.928Z,99731.15
2019-01-17T10:44:48.778Z,99729.91
2019-01-17T10:47:30.556Z,99733.97
2019-01-17T10:49:52.590Z,99728.58
2019-01-17T10:52:16.049Z,99734.97
2019-01-17T10:55:03.789Z,99730.26
2019-01-17T10:57:28.491Z,99723.48
2019-01-17T10:59:41.421Z,99721.73
2019-01-17T11:02:30.646Z,99721.53
2019-01-17T11:04:43.563Z,99735.84
2019-01-17T11:07:05.522Z,99723.02
2019-01-17T11:09:30.758Z,99711.59
2019-01-17T11:12:10.401Z,99702.86
2019-01-17T11:14:20.623Z,99707.62
2019-01-17T11:16:33.422Z,99705.46
2019-01-17T11:19:01.787Z,99709.03
2019-01-17T11:21:23.945Z,99709.19
2019-01-17T11:23:33.971Z,99710.75
2019-01-17T11:25:53.237Z,99710.08
2019-01-17T11:28:03.093Z,99711.36
2019-01-17T11:30:22.262Z,99701.14
2019-01-17T11:32:38.495Z,99695.84
2019-01-17T11:35:05.323Z,99698.63
2019-01-17T11:37:27.373Z,99697.32
2019-01-17T11:39:39.959Z,99696.98
2019-01-17T11:41:53.082Z,99687.15
2019-01-17T11:44:30.280Z,99686.17
2019-01-17T11:46:58.232Z,99681.78
2019-01-17T11:49:26.957Z,99681.42
2019-01-17T11:51:42.792Z,99683.48
2019-01-17T11:53:53.016Z,99682.16
2019-01-17T11:56:08.863Z,99680.36
2019-01-17T11:58:32.714Z,99680.63
2019-01-17T12:01:17.532Z,99677.45
2019-01-17T12:03:47.434Z,99681.73
2019-01-17T12:05:48.833Z,99683.28
2019-01-17T12:07:50.315Z,99679.30
2019-01-17T12:09:51.740Z,99685.52
2019-01-17T12:11:53.118Z,99675.13
2019-01-17T12:13:54.488Z,99678.05
2019-01-17T12:15:55.896Z,99680.09
2019-01-17T12:17:57.262Z,99678.32
2019-01-17T12:19:58.665Z,99677.42
2019-01-17T12:22:00.141Z,99679.36
2019-01-17T12:24:01.500Z,99680.20
2019-01-17T12:26:03.135Z,99670.27
2019-01-17T12:28:04.550Z,99671.20
2019-01-17T12:30:10.618Z,99669.34
2019-01-17T12:32:12.003Z,99662.54
2019-01-17T12:34:13.684Z,99665.12
2019-01-17T12:36:15.057Z,99660.06
2019-01-17T12:38:16.434Z,99654.19
2019-01-17T12:40:17.849Z,99656.91
2019-01-17T12:42:19.281Z,99652.95
2019-01-17T12:44:20.730Z,99645.23
2019-01-17T12:46:22.234Z,99649.25
2019-01-17T12:48:23.693Z,99634.36
2019-01-17T12:50:25.069Z,99631.50
2019-01-17T12:52:26.437Z,99636.44
2019-01-17T12:54:27.833Z,99626.73
2019-01-17T12:56:29.223Z,99620.97
2019-01-17T12:58:30.637Z,99609.86
2019-01-17T13:00:32.156Z,99611.19
2019-01-17T13:02:33.629Z,99609.88
2019-01-17T13:04:35.010Z,99610.59
2019-01-17T13:06:36.420Z,99610.16
2019-01-17T13:08:37.801Z,99619.70
2019-01-17T13:10:39.178Z,99612.14
2019-01-17T13:12:40.810Z,99614.23
2019-01-17T13:14:42.196Z,99609.12
2019-01-17T13:16:43.575Z,99607.95
2019-01-17T13:18:45.023Z,99601.39
2019-01-17T13:20:46.500Z,99607.35
2019-01-17T13:22:47.885Z,99614.58
2019-01-17T13:24:49.295Z,99613.34
2019-01-17T13:26:51.638Z,99605.59
2019-01-17T13:28:53.424Z,99612.73
2019-01-17T13:30:54.809Z,99603.47
2019-01-17T13:32:56.181Z,99607.21
2019-01-17T13:34:57.601Z,99599.28
2019-01-17T13:36:58.970Z,99592.32
2019-01-17T13:39:00.345Z,99584.00
2019-01-17T13:41:01.780Z,99588.42
2019-01-17T13:43:03.256Z,99584.97
2019-01-17T13:45:10.338Z,99587.56
2019-01-17T13:47:12.109Z,99590.84
2019-01-17T13:49:13.723Z,99587.09
2019-01-17T13:51:15.101Z,99587.57
2019-01-17T13:53:16.884Z,99593.19
2019-01-17T13:55:18.428Z,99593.19
2019-01-17T13:57:19.793Z,99587.82
2019-01-17T13:59:21.203Z,99592.65
2019-01-17T14:01:22.619Z,99593.18
2019-01-17T14:03:24.016Z,99594.20
2019-01-17T14:05:25.439Z,99586.62
2019-01-17T14:07:26.811Z,99590.76
2019-01-17T14:09:28.189Z,99589.37
2019-01-17T14:11:29.624Z,99585.30
2019-01-17T14:13:31.241Z,99587.50
2019-01-17T14:15:32.735Z,99583.23
2019-01-17T14:17:34.152Z,99586.72
2019-01-17T14:19:35.574Z,99587.23
2019-01-17T14:21:36.962Z,99587.19
2019-01-17T14:23:38.356Z,99580.47
2019-01-17T14:25:39.769Z,99587.90
2019-01-17T14:27:41.291Z,99581.96
2019-01-17T14:29:42.668Z,99577.76
2019-01-17T14:31:44.059Z,99571.88
2019-01-17T14:33:45.507Z,99570.02
2019-01-17T14:35:46.927Z,99571.55
2019-01-17T14:37:48.313Z,99577.33
2019-01-17T14:39:49.753Z,99576.64
2019-01-17T14:41:51.249Z,99570.64
2019-01-17T14:43:52.628Z,99574.45
2019-01-17T14:45:54.050Z,99570.53
2019-01-17T14:47:55.469Z,99570.06
2019-01-17T14:49:56.842Z,99569.56
2019-01-17T14:51:58.243Z,99559.34
2019-01-17T14:53:59.626Z,99558.08
2019-01-17T14:56:01.122Z,99565.45
2019-01-17T14:58:03.050Z,99561.18
2019-01-17T15:00:24.297Z,99558.82
2019-01-17T15:02:25.683Z,99553.72
2019-01-17T15:04:27.057Z,99565.16
2019-01-17T15:06:28.480Z,99556.21
2019-01-17T15:08:29.862Z,99550.16
2019-01-17T15:10:35.704Z,99548.23
2019-01-17T15:12:37.190Z,99545.74
2019-01-17T15:14:38.644Z,99543.64
2019-01-17T15:16:40.026Z,99543.47
2019-01-17T15:18:41.467Z,99541.94
2019-01-17T15:20:42.893Z,99542.30
2019-01-17T15:22:46.413Z,99544.42
2019-01-17T15:24:47.866Z,99542.98
2019-01-17T15:26:49.255Z,99540.69
2019-01-17T15:28:50.845Z,99543.84
2019-01-17T15:30:52.252Z,99542.69
2019-01-17T15:32:53.942Z,99540.48
2019-01-17T15:34:55.592Z,99540.34
2019-01-17T15:36:56.971Z,99539.88
2019-01-17T15:38:58.407Z,99538.69
2019-01-17T15:40:59.769Z,99535.29
2019-01-17T15:43:01.244Z,99532.44
2019-01-17T15:45:06.291Z,99532.27
2019-01-17T15:47:13.131Z,99532.27
2019-01-17T15:49:11.002Z,99530.91
2019-01-17T15:51:12.376Z,99521.47
2019-01-17T15:53:13.763Z,99529.14
2019-01-17T15:55:15.986Z,99525.70
2019-01-17T15:57:17.371Z,99521.36
2019-01-17T15:59:23.238Z,99525.39
2019-01-17T16:01:22.140Z,99524.02
2019-01-17T16:03:23.527Z,99519.84
2019-01-17T16:05:25.001Z,99516.20
2019-01-17T16:07:26.444Z,99515.47
2019-01-17T16:09:27.820Z,99506.58
2019-01-17T16:11:29.200Z,99502.78
2019-01-17T16:13:30.654Z,99495.91
2019-01-17T16:15:32.060Z,99497.42
2019-01-17T16:17:33.539Z,99508.48
2019-01-17T16:19:34.939Z,99509.16
2019-01-17T16:21:36.419Z,99513.98
2019-01-17T16:23:37.963Z,99512.94
2019-01-17T16:25:39.340Z,99515.34
2019-01-17T16:27:41.994Z,99521.63
2019-01-17T16:29:43.855Z,99516.02
2019-01-17T16:31:45.227Z,99520.48
2019-01-17T16:33:46.617Z,99516.02
2019-01-17T16:35:48.067Z,99518.23
2019-01-17T16:37:49.508Z,99507.09
2019-01-17T16:39:50.944Z,99511.34
2019-01-17T16:41:52.392Z,99502.35
2019-01-17T16:43:53.768Z,99491.06
2019-01-17T16:45:55.163Z,99482.45
2019-01-17T16:47:56.602Z,99483.89
2019-01-17T16:49:57.985Z,99486.58
2019-01-17T16:51:59.369Z,99484.92
2019-01-17T16:54:00.796Z,99481.70
2019-01-17T16:56:02.264Z,99473.94
2019-01-17T16:58:03.847Z,99470.64
2019-01-17T17:00:28.059Z,99472.35
2019-01-17T17:02:29.421Z,99473.16
2019-01-17T17:04:30.859Z,99477.47
2019-01-17T17:06:32.320Z,99480.34
2019-01-17T17:08:33.793Z,99476.87
2019-01-17T17:10:35.359Z,99481.89
2019-01-17T17:12:36.795Z,99474.13
2019-01-17T17:14:38.202Z,99466.13
2019-01-17T17:16:39.576Z,99467.19
2019-01-17T17:18:41.018Z,99464.70
2019-01-17T17:20:42.721Z,99451.27
2019-01-17T17:22:44.102Z,99457.61
2019-01-17T17:24:45.538Z,99462.53
2019-01-17T17:26:46.977Z,99461.22
2019-01-17T17:28:48.357Z,99466.89
2019-01-17T17:30:49.746Z,99468.84
2019-01-17T17:32:51.178Z,99486.27
2019-01-17T17:34:52.620Z,99509.30
2019-01-17T17:36:54.005Z,99517.45
2019-01-17T17:38:55.398Z,99515.63
2019-01-17T17:40:56.846Z,99534.23
2019-01-17T17:42:58.229Z,99555.14
2019-01-17T17:44:59.627Z,99533.56
2019-01-17T17:47:01.090Z,99556.05
2019-01-17T17:49:03.364Z,99581.32
2019-01-17T17:51:04.784Z,99589.60
2019-01-17T17:53:06.288Z,99589.61
2019-01-17T17:55:13.461Z,99601.80
2019-01-17T17:57:14.842Z,99603.58
2019-01-17T17:59:16.603Z,99612.57
2019-01-17T18:01:19.584Z,99608.98
2019-01-17T18:03:20.962Z,99618.77
2019-01-17T18:05:22.518Z,99621.35
2019-01-17T18:07:23.919Z,99632.52
2019-01-17T18:09:25.293Z,99632.44
2019-01-17T18:11:26.764Z,99632.38
2019-01-17T18:13:28.147Z,99636.98
2019-01-17T18:15:29.523Z,99642.78
2019-01-17T18:17:30.968Z,99653.83
2019-01-17T18:19:32.367Z,99651.83
2019-01-17T18:21:33.870Z,99664.20
2019-01-17T18:23:35.299Z,99661.47
2019-01-17T18:25:36.677Z,99665.56
2019-01-17T18:27:38.152Z,99671.11
2019-01-17T18:29:39.595Z,99669.43
2019-01-17T18:31:40.976Z,99676.07
2019-01-17T18:33:42.472Z,99681.21
2019-01-17T18:35:43.934Z,99679.35
2019-01-17T18:37:45.315Z,99681.46
2019-01-17T18:39:46.679Z,99680.08
2019-01-17T18:41:48.133Z,99684.70
2019-01-17T18:43:49.617Z,99698.28
2019-01-17T18:45:50.987Z,99702.34
2019-01-17T18:47:52.634Z,99704.58
2019-01-17T18:49:54.035Z,99715.53
2019-01-17T18:51:55.414Z,99720.23
2019-01-17T18:53:56.865Z,99718.52
2019-01-17T18:55:58.245Z,99720.87
2019-01-17T18:57:59.715Z,99736.20
2019-01-17T19:00:01.356Z,99738.52
2019-01-17T19:02:03.028Z,99746.84
2019-01-17T19:04:04.507Z,99753.08
2019-01-17T19:06:06.718Z,99750.80
2019-01-17T19:08:08.087Z,99753.10
2019-01-17T19:10:11.861Z,99763.63
2019-01-17T19:12:13.302Z,99772.64
2019-01-17T19:14:14.689Z,99773.83
2019-01-17T19:16:16.081Z,99780.27
2019-01-17T19:18:17.520Z,99778.03
2019-01-17T19:20:19.608Z,99779.23
2019-01-17T19:22:21.049Z,99781.67
2019-01-17T19:24:22.539Z,99792.22
2019-01-17T19:26:23.944Z,99789.34
2019-01-17T19:28:25.395Z,99791.20
2019-01-17T19:30:28.498Z,99792.66
2019-01-17T19:32:29.886Z,99803.61
2019-01-17T19:34:31.779Z,99804.89
2019-01-17T19:36:33.171Z,99813.00
2019-01-17T19:38:34.573Z,99814.48
2019-01-17T19:40:36.032Z,99821.91
2019-01-17T19:42:37.418Z,99825.24
2019-01-17T19:44:38.805Z,99829.36
2019-01-17T19:46:40.238Z,99837.86
2019-01-17T19:48:41.707Z,99843.91
2019-01-17T19:50:43.103Z,99837.52
2019-01-17T19:52:44.553Z,99847.00
2019-01-17T19:54:45.915Z,99850.25
2019-01-17T19:56:47.285Z,99855.45
2019-01-17T19:58:48.734Z,99870.05
2019-01-17T20:00:50.107Z,99864.92
2019-01-17T20:02:51.588Z,99871.36
2019-01-17T20:04:53.029Z,99871.59
2019-01-17T20:06:54.589Z,99877.60
2019-01-17T20:08:55.972Z,99890.17
2019-01-17T20:10:57.590Z,99892.35
2019-01-17T20:12:59.164Z,99893.51
2019-01-17T20:15:00.585Z,99899.98
2019-01-17T20:17:02.116Z,99899.33
2019-01-17T20:19:04.408Z,99911.19
2019-01-17T20:21:05.879Z,99909.81
2019-01-17T20:23:07.410Z,99919.09
2019-01-17T20:25:09.191Z,99911.33
2019-01-17T20:27:10.593Z,99913.75
2019-01-17T20:29:12.725Z,99915.61
2019-01-17T20:31:14.172Z,99917.22
2019-01-17T20:33:15.560Z,99920.25
2019-01-17T20:35:17.149Z,99927.81
2019-01-17T20:37:18.584Z,99932.37
2019-01-17T20:39:19.974Z,99934.20
2019-01-17T20:41:21.349Z,99937.57
2019-01-17T20:43:22.785Z,99942.25
2019-01-17T20:45:24.158Z,99945.20
2019-01-17T20:47:25.596Z,99946.16
2019-01-17T20:49:26.969Z,99950.23
2019-01-17T20:51:28.339Z,99949.84
2019-01-17T20:53:29.785Z,99954.75
2019-01-17T20:55:31.268Z,99955.28
2019-01-17T20:57:38.490Z,99957.32
2019-01-17T20:59:42.931Z,99962.08
2019-01-17T21:01:57.195Z,99964.88
2019-01-17T21:03:59.021Z,99966.86
2019-01-17T21:06:00.924Z,99964.28
2019-01-17T21:08:02.659Z,99963.13
2019-01-17T21:10:11.896Z,99969.06
2019-01-17T21:12:14.318Z,99967.64
2019-01-17T21:14:18.792Z,99979.88
2019-01-17T21:16:23.543Z,99982.61
2019-01-17T21:18:28.803Z,99989.70
2019-01-17T21:20:33.827Z,99991.55
2019-01-17T21:22:35.873Z,99989.29
2019-01-17T21:24:37.392Z,99996.53
2019-01-17T21:26:42.058Z,100001.44
2019-01-17T21:28:49.133Z,100008.12
2019-01-17T21:30:50.738Z,100012.25
2019-01-17T21:32:52.278Z,100028.98
2019-01-17T21:34:53.620Z,100015.42
2019-01-17T21:36:55.038Z,100025.58
2019-01-17T21:38:56.452Z,100029.81
2019-01-17T21:40:58.688Z,100027.16
2019-01-17T21:43:00.116Z,100028.42
2019-01-17T21:45:02.006Z,100035.00
2019-01-17T21:47:03.503Z,100034.84
2019-01-17T21:49:04.980Z,100035.98
2019-01-17T21:51:06.519Z,100039.55
2019-01-17T21:53:07.981Z,100040.93
2019-01-17T21:55:09.751Z,100045.06
2019-01-17T21:57:11.240Z,100049.06
2019-01-17T21:59:12.671Z,100050.13
2019-01-17T22:01:14.126Z,100050.54
2019-01-17T22:03:15.529Z,100057.83
2019-01-17T22:05:17.009Z,100051.55
2019-01-17T22:07:18.473Z,100060.25
2019-01-17T22:09:19.925Z,100053.87
2019-01-17T22:11:21.327Z,100054.97
2019-01-17T22:13:22.721Z,100061.86
2019-01-17T22:15:25.744Z,100072.59
2019-01-17T22:17:27.187Z,100075.35
2019-01-17T22:19:28.563Z,100075.02
2019-01-17T22:21:30.268Z,100084.34
2019-01-17T22:23:31.692Z,100086.98
2019-01-17T22:25:33.045Z,100087.17
2019-01-17T22:27:34.760Z,100084.56
2019-01-17T22:29:36.235Z,100078.78
2019-01-17T22:31:37.684Z,100080.19
2019-01-17T22:33:39.169Z,100081.72
2019-01-17T22:35:40.589Z,100085.96
2019-01-17T22:37:41.996Z,100086.50
2019-01-17T22:39:43.379Z,100096.56
2019-01-17T22:41:44.777Z,100086.41
2019-01-17T22:43:46.228Z,100087.80
2019-01-17T22:45:47.721Z,100095.70
2019-01-17T22:47:49.114Z,100098.38
2019-01-17T22:49:50.526Z,100095.37
2019-01-17T22:51:51.910Z,100100.56
2019-01-17T22:53:53.312Z,100098.37
2019-01-17T22:55:54.718Z,100099.26
2019-01-17T22:57:56.096Z,100106.58
2019-01-17T22:59:57.472Z,100106.50
2019-01-17T23:01:59.040Z,100112.48
2019-01-17T23:04:00.526Z,100113.92
2019-01-17T23:06:02.002Z,100118.21
2019-01-17T23:08:03.431Z,100115.30
2019-01-17T23:10:07.132Z,100125.30
2019-01-17T23:12:08.516Z,100124.69
2019-01-17T23:14:09.927Z,100126.84
2019-01-17T23:16:11.425Z,100131.14
2019-01-17T23:18:12.826Z,100133.00
2019-01-17T23:20:14.417Z,100126.41
2019-01-17T23:22:15.859Z,100138.77
2019-01-17T23:24:17.215Z,100137.80
2019-01-17T23:26:18.717Z,100145.37
2019-01-17T23:28:20.150Z,100143.62
2019-01-17T23:30:21.538Z,100144.22
2019-01-17T23:32:22.930Z,100142.44
2019-01-17T23:34:24.349Z,100147.80
2019-01-17T23:36:25.760Z,100148.66
2019-01-17T23:38:27.176Z,100153.08
2019-01-17T23:40:28.552Z,100159.80
2019-01-17T23:42:29.931Z,100168.98
2019-01-17T23:44:31.594Z,100167.53
2019-01-17T23:46:32.987Z,100170.12
2019-01-17T23:48:34.412Z,100170.09
2019-01-17T23:50:36.110Z,100171.91
2019-01-17T23:52:37.597Z,100181.62
2019-01-17T23:54:39.000Z,100177.18
2019-01-17T23:56:40.428Z,100178.72
2019-01-17T23:58:41.843Z,100190.88
